Time;durP1;ratioP1;P1;durP2;ratioP2;P2;SDS_P1;SDS_P2;PMS_P1;PMS_P2;Temp;Humidity;BMP_temperature;BMP_pressure;BME280_temperature;BME280_humidity;BME280_pressure;Samples;Min_cycle;Max_cycle;Signal;HPM_P1;HPM_P2
2023/04/26 00:01:20;;;;;;;2.30;1.40;;;7.50;99.90;;;;;;5052630;28;20205;-76
2023/04/26 00:03:49;;;;;;;2.90;1.10;;;7.50;99.90;;;;;;5044865;28;20210;-76
2023/04/26 00:06:17;;;;;;;2.20;1.27;;;7.50;99.90;;;;;;5035632;28;20229;-76
2023/04/26 00:08:43;;;;;;;2.40;1.37;;;7.40;99.90;;;;;;5034698;28;20182;-73
2023/04/26 00:11:08;;;;;;;3.57;1.23;;;7.40;99.90;;;;;;5035507;28;20326;-75
2023/04/26 00:13:35;;;;;;;2.73;1.40;;;7.30;99.90;;;;;;5031773;28;20210;-77
2023/04/26 00:16:01;;;;;;;2.63;1.60;;;7.30;99.90;;;;;;5025812;28;20201;-77
2023/04/26 00:18:27;;;;;;;3.10;1.47;;;7.30;99.90;;;;;;5034116;28;20244;-75
2023/04/26 00:20:52;;;;;;;3.30;1.40;;;7.30;99.90;;;;;;5034741;28;20180;-76
2023/04/26 00:23:18;;;;;;;3.33;1.30;;;7.20;99.90;;;;;;5035110;28;20177;-76
2023/04/26 00:25:48;;;;;;;1.83;1.20;;;7.20;99.90;;;;;;5032101;28;20213;-77
2023/04/26 00:28:17;;;;;;;2.73;1.47;;;7.20;99.90;;;;;;5031740;28;20426;-77
2023/04/26 00:30:47;;;;;;;3.70;1.40;;;7.10;99.90;;;;;;5033077;28;20181;-76
2023/04/26 00:33:15;;;;;;;2.70;1.40;;;7.10;99.90;;;;;;5028707;28;20194;-77
2023/04/26 00:35:44;;;;;;;3.10;1.60;;;7.10;99.90;;;;;;5031758;28;20260;-76
2023/04/26 00:38:09;;;;;;;3.13;1.53;;;7.10;99.90;;;;;;5031710;28;20174;-75
2023/04/26 00:40:35;;;;;;;1.93;1.43;;;7.00;99.90;;;;;;5026700;28;20190;-75
2023/04/26 00:43:06;;;;;;;3.53;1.43;;;7.00;99.90;;;;;;5026480;28;20213;-77
2023/04/26 00:45:35;;;;;;;2.90;1.30;;;7.00;99.90;;;;;;5032929;28;20170;-77
2023/04/26 00:48:04;;;;;;;3.37;1.53;;;7.00;99.90;;;;;;5029802;28;20225;-75
2023/04/26 00:50:33;;;;;;;2.07;1.17;;;6.90;99.90;;;;;;5031115;28;20220;-74
2023/04/26 00:53:04;;;;;;;2.80;1.40;;;6.90;99.90;;;;;;5031886;28;20193;-78
2023/04/26 00:55:30;;;;;;;2.13;1.20;;;6.90;99.90;;;;;;5031633;28;20174;-77
2023/04/26 00:57:56;;;;;;;1.97;1.43;;;6.90;99.90;;;;;;5031542;28;20273;-76
2023/04/26 01:00:22;;;;;;;3.60;1.20;;;6.90;99.90;;;;;;5034177;28;20350;-77
2023/04/26 01:02:47;;;;;;;3.27;1.20;;;6.80;99.90;;;;;;5030727;28;20347;-77
2023/04/26 01:05:13;;;;;;;1.60;1.20;;;6.80;99.90;;;;;;5027444;28;20177;-76
2023/04/26 01:07:43;;;;;;;3.13;1.30;;;6.70;99.90;;;;;;5034081;28;20224;-78
2023/04/26 01:10:09;;;;;;;1.73;1.33;;;6.70;99.90;;;;;;5033346;28;20170;-75
2023/04/26 01:12:38;;;;;;;2.33;1.20;;;6.70;99.90;;;;;;5033550;28;20185;-78
2023/04/26 01:15:05;;;;;;;2.30;1.40;;;6.60;99.90;;;;;;5040800;28;20256;-76
2023/04/26 01:17:30;;;;;;;3.07;1.43;;;6.70;99.90;;;;;;5020075;28;20182;-77
2023/04/26 01:19:56;;;;;;;2.80;1.40;;;6.70;99.90;;;;;;5029615;28;20186;-77
2023/04/26 01:22:22;;;;;;;3.13;1.40;;;6.60;99.90;;;;;;5033593;28;20333;-78
2023/04/26 01:24:50;;;;;;;2.77;1.30;;;6.60;99.90;;;;;;5024594;28;20181;-77
2023/04/26 01:27:18;;;;;;;3.33;1.30;;;6.60;99.90;;;;;;5033630;28;20174;-77
2023/04/26 01:29:46;;;;;;;2.07;1.30;;;6.60;99.90;;;;;;5040634;28;20179;-78
2023/04/26 01:32:12;;;;;;;2.90;1.60;;;6.60;99.90;;;;;;5032572;28;20238;-77
2023/04/26 01:34:42;;;;;;;1.80;1.20;;;6.50;99.90;;;;;;5031691;28;20284;-75
2023/04/26 01:37:07;;;;;;;1.90;1.10;;;6.50;99.90;;;;;;5033294;28;20186;-78
2023/04/26 01:39:36;;;;;;;1.70;1.10;;;6.40;99.90;;;;;;5031631;28;20240;-78
2023/04/26 01:42:07;;;;;;;5.20;1.50;;;6.30;99.90;;;;;;5014962;28;20265;-77
2023/04/26 01:44:35;;;;;;;3.77;1.30;;;6.30;99.90;;;;;;5025589;28;20235;-75
2023/04/26 01:47:00;;;;;;;2.10;1.30;;;6.30;99.90;;;;;;5034330;28;20196;-77
2023/04/26 01:49:26;;;;;;;1.93;1.27;;;6.20;99.90;;;;;;5034811;28;20197;-77
2023/04/26 01:51:52;;;;;;;3.00;1.43;;;6.20;99.90;;;;;;5025266;28;20190;-78
2023/04/26 01:54:20;;;;;;;3.20;1.33;;;6.20;99.90;;;;;;5023110;28;20174;-78
2023/04/26 01:56:46;;;;;;;3.33;1.47;;;6.10;99.90;;;;;;5034593;28;20185;-75
2023/04/26 01:59:11;;;;;;;3.50;1.53;;;6.10;99.90;;;;;;5034390;28;20178;-77
2023/04/26 02:01:39;;;;;;;5.30;1.50;;;6.10;99.90;;;;;;5034303;28;20213;-77
2023/04/26 02:04:05;;;;;;;2.43;1.40;;;6.00;99.90;;;;;;5035067;28;20178;-77
2023/04/26 02:06:33;;;;;;;4.30;1.50;;;6.00;99.90;;;;;;5034812;28;20186;-77
2023/04/26 02:09:01;;;;;;;2.87;1.50;;;6.00;99.90;;;;;;5034964;28;20198;-77
2023/04/26 02:11:31;;;;;;;3.00;1.60;;;5.90;99.90;;;;;;5035273;28;20228;-73
2023/04/26 02:13:59;;;;;;;2.70;1.73;;;5.90;99.90;;;;;;5034993;28;20198;-78
2023/04/26 02:16:25;;;;;;;4.10;1.63;;;5.90;99.90;;;;;;5037570;28;20182;-77
2023/04/26 02:18:54;;;;;;;4.97;1.87;;;5.80;99.90;;;;;;5036928;28;20177;-76
2023/04/26 02:21:25;;;;;;;2.83;1.67;;;5.80;99.90;;;;;;5034019;28;20190;-77
2023/04/26 02:23:53;;;;;;;3.47;1.90;;;5.80;99.90;;;;;;5033580;28;20190;-75
2023/04/26 02:26:19;;;;;;;4.97;2.20;;;5.70;99.90;;;;;;5034868;28;20206;-78
2023/04/26 02:28:49;;;;;;;2.07;1.70;;;5.70;99.90;;;;;;5031241;28;20190;-78
2023/04/26 02:31:17;;;;;;;2.53;1.87;;;5.70;99.90;;;;;;5035111;28;20197;-78
2023/04/26 02:33:43;;;;;;;3.10;1.70;;;5.60;99.90;;;;;;5034194;28;20207;-75
2023/04/26 02:36:11;;;;;;;2.90;1.73;;;5.70;99.90;;;;;;5022106;28;20194;-78
2023/04/26 02:38:41;;;;;;;4.23;1.90;;;5.60;99.90;;;;;;5035458;28;20197;-77
2023/04/26 02:41:07;;;;;;;4.57;2.07;;;5.60;99.90;;;;;;5028344;28;20263;-78
2023/04/26 02:43:32;;;;;;;3.63;1.80;;;5.60;99.90;;;;;;5037367;28;20293;-77
2023/04/26 02:46:01;;;;;;;2.80;1.90;;;5.50;99.90;;;;;;5030946;28;20174;-76
2023/04/26 02:48:28;;;;;;;3.47;1.97;;;5.50;99.90;;;;;;5033626;28;20178;-77
2023/04/26 02:50:56;;;;;;;2.03;1.70;;;5.50;99.90;;;;;;5036104;28;20209;-78
2023/04/26 02:53:22;;;;;;;3.23;1.87;;;5.50;99.90;;;;;;5031665;28;20193;-77
2023/04/26 02:55:48;;;;;;;4.30;1.77;;;5.50;99.90;;;;;;5033684;28;20182;-75
2023/04/26 02:58:16;;;;;;;3.83;2.00;;;5.40;99.90;;;;;;5036633;28;20181;-72
2023/04/26 03:00:47;;;;;;;3.37;1.80;;;5.50;99.90;;;;;;5030965;28;20265;-77
2023/04/26 03:03:15;;;;;;;3.80;1.83;;;5.40;99.90;;;;;;5032374;28;20203;-77
2023/04/26 03:05:41;;;;;;;3.27;2.00;;;5.30;99.90;;;;;;5033955;28;20202;-76
2023/04/26 03:08:07;;;;;;;2.20;1.80;;;5.30;99.90;;;;;;5031024;28;20205;-77
2023/04/26 03:10:35;;;;;;;2.43;1.90;;;5.30;99.90;;;;;;5034039;28;20178;-78
2023/04/26 03:13:06;;;;;;;4.80;1.90;;;5.30;99.90;;;;;;5032442;28;20179;-77
2023/04/26 03:15:34;;;;;;;1.83;1.63;;;5.30;99.90;;;;;;5031529;28;20205;-75
2023/04/26 03:18:04;;;;;;;3.57;2.00;;;5.20;99.90;;;;;;5027391;28;20320;-75
2023/04/26 03:20:30;;;;;;;2.87;2.00;;;5.20;99.90;;;;;;5035532;28;20206;-76
2023/04/26 03:22:56;;;;;;;2.73;2.00;;;5.20;99.90;;;;;;5029597;28;20245;-75
2023/04/26 03:25:21;;;;;;;3.83;1.97;;;5.20;99.90;;;;;;5038246;28;20209;-77
2023/04/26 03:27:49;;;;;;;5.37;2.30;;;5.20;99.90;;;;;;5040556;28;20193;-76
2023/04/26 03:30:17;;;;;;;4.10;2.37;;;5.10;99.90;;;;;;5036370;28;20182;-73
2023/04/26 03:32:45;;;;;;;3.53;2.50;;;5.10;99.90;;;;;;5036428;28;20213;-77
2023/04/26 03:35:13;;;;;;;4.77;2.13;;;5.10;99.90;;;;;;5036897;28;20186;-75
2023/04/26 03:37:41;;;;;;;4.10;2.00;;;5.10;99.90;;;;;;5024252;28;20183;-73
2023/04/26 03:40:10;;;;;;;4.00;2.43;;;5.10;99.90;;;;;;5037222;28;20178;-76
2023/04/26 03:42:36;;;;;;;4.63;2.50;;;5.10;99.90;;;;;;5035711;28;20264;-77
2023/04/26 03:45:06;;;;;;;5.00;3.60;;;5.10;99.90;;;;;;5036664;28;20210;-78
2023/04/26 03:47:32;;;;;;;4.53;3.00;;;5.10;99.90;;;;;;5037055;28;20176;-78
2023/04/26 03:50:00;;;;;;;5.63;2.60;;;5.10;99.90;;;;;;5036775;28;20285;-76
2023/04/26 03:52:26;;;;;;;3.67;2.90;;;5.10;99.90;;;;;;5036470;28;20224;-78
2023/04/26 03:54:51;;;;;;;5.83;2.80;;;5.10;99.90;;;;;;5034868;28;20382;-74
2023/04/26 03:57:17;;;;;;;4.00;2.63;;;5.10;99.90;;;;;;5034038;28;20217;-78
2023/04/26 03:59:45;;;;;;;4.83;2.80;;;5.10;99.90;;;;;;5036161;28;20194;-77
2023/04/26 04:02:10;;;;;;;5.07;3.10;;;5.20;99.90;;;;;;5021591;28;20213;-78
2023/04/26 04:04:39;;;;;;;4.53;2.77;;;5.20;99.90;;;;;;5036641;28;20507;-76
2023/04/26 04:07:04;;;;;;;6.77;3.33;;;5.20;99.90;;;;;;5032144;28;20174;-78
2023/04/26 04:09:30;;;;;;;6.13;3.50;;;5.20;99.90;;;;;;5044910;28;20174;-78
2023/04/26 04:11:55;;;;;;;5.67;3.27;;;5.20;99.90;;;;;;5036550;28;20283;-76
2023/04/26 04:14:23;;;;;;;3.80;2.90;;;5.10;99.90;;;;;;5035993;28;20261;-78
2023/04/26 04:16:49;;;;;;;5.13;2.97;;;5.20;99.90;;;;;;5032848;28;20185;-78
2023/04/26 04:19:17;;;;;;;4.80;2.97;;;5.20;99.90;;;;;;5047731;28;20235;-76
2023/04/26 04:21:44;;;;;;;3.43;2.77;;;5.20;99.90;;;;;;5036197;28;20209;-75
2023/04/26 04:24:12;;;;;;;3.47;2.67;;;5.30;99.90;;;;;;5035184;28;20197;-74
2023/04/26 04:26:38;;;;;;;4.60;3.17;;;5.20;99.90;;;;;;5029604;28;20204;-77
2023/04/26 04:29:08;;;;;;;7.57;3.60;;;5.20;99.90;;;;;;5035219;28;20171;-75
2023/04/26 04:31:38;;;;;;;8.47;3.60;;;5.10;99.90;;;;;;5023284;28;20204;-74
2023/04/26 04:34:04;;;;;;;4.47;2.93;;;5.10;99.90;;;;;;5031211;28;20186;-74
2023/04/26 04:36:34;;;;;;;6.60;3.20;;;5.10;99.90;;;;;;5036495;28;20201;-77
2023/04/26 04:39:00;;;;;;;4.67;3.33;;;5.10;99.90;;;;;;5033937;28;20217;-71
2023/04/26 04:41:28;;;;;;;6.07;3.40;;;5.10;99.90;;;;;;5031773;28;20225;-77
2023/04/26 04:43:54;;;;;;;4.60;3.10;;;5.20;99.90;;;;;;5031587;28;20198;-75
2023/04/26 04:46:24;;;;;;;5.83;3.50;;;5.10;99.90;;;;;;5032753;28;20239;-76
2023/04/26 04:48:49;;;;;;;4.87;3.27;;;5.10;99.90;;;;;;5032211;28;20200;-78
2023/04/26 04:51:15;;;;;;;7.17;3.03;;;5.10;99.90;;;;;;5034243;28;20273;-77
2023/04/26 04:53:43;;;;;;;5.07;3.10;;;5.20;99.90;;;;;;5034639;28;20192;-77
2023/04/26 04:56:11;;;;;;;4.27;2.97;;;5.20;99.90;;;;;;5034671;28;20178;-73
2023/04/26 04:58:39;;;;;;;7.27;3.00;;;5.20;99.90;;;;;;5016519;28;20273;-73
2023/04/26 05:01:07;;;;;;;7.20;3.10;;;5.20;99.90;;;;;;5032370;28;20170;-73
2023/04/26 05:03:35;;;;;;;4.57;2.90;;;5.30;99.90;;;;;;5033595;28;20403;-73
2023/04/26 05:06:01;;;;;;;5.83;2.57;;;5.30;99.90;;;;;;5030939;28;20198;-73
2023/04/26 05:08:29;;;;;;;6.00;2.87;;;5.30;99.90;;;;;;5027986;28;20190;-77
2023/04/26 05:10:55;;;;;;;4.43;3.10;;;5.40;99.90;;;;;;5018490;28;20194;-77
2023/04/26 05:13:23;;;;;;;4.57;2.90;;;5.50;99.90;;;;;;5034172;28;20186;-76
2023/04/26 05:15:53;;;;;;;5.30;3.17;;;5.40;99.90;;;;;;5034479;28;20170;-75
2023/04/26 05:18:21;;;;;;;4.27;2.80;;;5.50;99.90;;;;;;5028867;28;20170;-77
2023/04/26 05:20:47;;;;;;;5.13;3.27;;;5.50;99.90;;;;;;5028306;28;20737;-75
2023/04/26 05:23:14;;;;;;;4.73;3.13;;;5.50;99.90;;;;;;5033290;28;20245;-78
2023/04/26 05:25:42;;;;;;;4.00;2.90;;;5.50;99.90;;;;;;5034029;28;20263;-78
2023/04/26 05:28:11;;;;;;;3.83;2.80;;;5.60;99.90;;;;;;5030559;28;20178;-77
2023/04/26 05:30:37;;;;;;;5.10;3.17;;;5.60;99.90;;;;;;5031297;28;20264;-76
2023/04/26 05:33:05;;;;;;;5.13;3.60;;;5.70;99.90;;;;;;5034097;28;20174;-78
2023/04/26 05:35:34;;;;;;;5.63;3.03;;;5.60;99.90;;;;;;5033621;28;20178;-77
2023/04/26 05:38:04;;;;;;;6.07;3.60;;;5.70;99.90;;;;;;5033750;28;20205;-78
2023/04/26 05:40:31;;;;;;;5.63;3.20;;;5.80;99.90;;;;;;5034571;28;20170;-78
2023/04/26 05:42:56;;;;;;;4.63;3.47;;;5.80;99.90;;;;;;5026738;28;20190;-77
2023/04/26 05:45:22;;;;;;;5.13;3.10;;;5.80;99.90;;;;;;5014738;28;20190;-75
2023/04/26 05:47:48;;;;;;;7.37;3.73;;;5.90;99.90;;;;;;5030746;28;20206;-78
2023/04/26 05:50:16;;;;;;;6.23;3.43;;;5.90;99.90;;;;;;5014679;28;20274;-75
2023/04/26 05:52:43;;;;;;;5.73;3.50;;;5.90;99.90;;;;;;5017897;28;20230;-76
2023/04/26 05:55:12;;;;;;;4.53;3.60;;;5.90;99.90;;;;;;5031960;28;20208;-78
2023/04/26 05:57:38;;;;;;;4.37;3.43;;;6.10;99.90;;;;;;5029856;28;20283;-77
2023/04/26 06:00:08;;;;;;;6.83;3.30;;;6.00;99.90;;;;;;5022019;28;20224;-77
2023/04/26 06:02:34;;;;;;;6.17;3.77;;;6.10;99.90;;;;;;5033913;28;20197;-79
2023/04/26 06:04:59;;;;;;;7.20;4.27;;;6.10;99.90;;;;;;5034401;28;20177;-77
2023/04/26 06:07:27;;;;;;;5.13;3.47;;;6.20;99.90;;;;;;5022823;28;20183;-78
2023/04/26 06:09:53;;;;;;;5.83;4.10;;;6.20;99.90;;;;;;5020272;28;20193;-76
2023/04/26 06:12:18;;;;;;;7.23;3.57;;;6.30;99.90;;;;;;5018228;28;20206;-79
2023/04/26 06:14:46;;;;;;;7.43;3.63;;;6.30;99.90;;;;;;5023410;28;20262;-72
2023/04/26 06:17:13;;;;;;;5.10;3.63;;;6.40;99.90;;;;;;5037617;28;20182;-76
2023/04/26 06:19:40;;;;;;;6.30;3.73;;;6.50;99.90;;;;;;5036928;28;20202;-78
2023/04/26 06:22:06;;;;;;;6.17;4.10;;;6.50;99.90;;;;;;5037594;28;20232;-76
2023/04/26 06:24:34;;;;;;;6.80;4.03;;;6.60;99.90;;;;;;5027435;28;20207;-77
2023/04/26 06:27:04;;;;;;;7.53;4.43;;;6.70;99.90;;;;;;5033635;28;20202;-78
2023/04/26 06:29:32;;;;;;;7.23;4.50;;;6.70;99.90;;;;;;5037024;28;20174;-79
2023/04/26 06:32:05;;;;;;;6.77;3.90;;;6.80;99.90;;;;;;5037417;28;20208;-78
2023/04/26 06:34:31;;;;;;;5.40;4.20;;;6.80;99.90;;;;;;5023851;28;20175;-78
2023/04/26 06:36:59;;;;;;;6.07;4.03;;;6.90;99.90;;;;;;5035273;28;20190;-77
2023/04/26 06:39:24;;;;;;;8.47;4.20;;;7.00;99.90;;;;;;5025215;28;20192;-74
2023/04/26 06:41:50;;;;;;;6.80;4.37;;;7.10;99.90;;;;;;5033757;28;20484;-77
2023/04/26 06:44:18;;;;;;;8.93;4.87;;;7.20;99.90;;;;;;5036583;28;20175;-75
2023/04/26 06:46:43;;;;;;;9.00;4.80;;;7.30;99.90;;;;;;5028830;28;20221;-75
2023/04/26 06:49:12;;;;;;;6.73;4.60;;;7.30;99.90;;;;;;5034774;28;20283;-78
2023/04/26 06:51:37;;;;;;;6.97;4.50;;;7.40;99.90;;;;;;5048486;28;20189;-78
2023/04/26 06:54:03;;;;;;;8.67;4.50;;;7.40;99.90;;;;;;5036736;28;20194;-79
2023/04/26 06:56:29;;;;;;;5.03;3.93;;;7.50;99.90;;;;;;5039892;28;20204;-79
2023/04/26 06:59:05;;;;;;;7.37;4.47;;;7.60;99.90;;;;;;5033494;28;20335;-78
2023/04/26 07:01:37;;;;;;;8.03;4.80;;;7.70;99.90;;;;;;5028317;28;20202;-79
2023/04/26 07:04:10;;;;;;;5.97;4.33;;;7.70;99.90;;;;;;5030128;28;20174;-77
2023/04/26 07:06:40;;;;;;;6.73;4.53;;;7.80;99.90;;;;;;5037175;28;20257;-76
2023/04/26 07:09:07;;;;;;;6.80;4.80;;;7.90;99.90;;;;;;5036932;28;20342;-78
2023/04/26 07:11:33;;;;;;;7.53;4.80;;;8.00;99.90;;;;;;5034995;28;20183;-79
2023/04/26 07:13:58;;;;;;;6.53;4.50;;;8.10;99.90;;;;;;5036406;28;20201;-77
2023/04/26 07:16:25;;;;;;;7.87;4.70;;;8.30;99.90;;;;;;5033181;28;20189;-79
2023/04/26 07:18:51;;;;;;;6.30;4.27;;;8.40;99.90;;;;;;5031998;28;20182;-78
2023/04/26 07:21:17;;;;;;;9.37;5.40;;;8.40;99.90;;;;;;5032422;28;20243;-76
2023/04/26 07:23:45;;;;;;;5.63;4.60;;;8.60;99.90;;;;;;5037003;28;20256;-79
2023/04/26 07:26:11;;;;;;;8.03;4.57;;;8.60;99.90;;;;;;5036952;28;20178;-78
2023/04/26 07:28:39;;;;;;;6.27;4.27;;;8.80;99.90;;;;;;5032722;28;20230;-79
2023/04/26 07:31:09;;;;;;;9.10;4.53;;;8.80;99.90;;;;;;5017359;28;20170;-79
2023/04/26 07:33:40;;;;;;;8.27;4.20;;;9.00;99.90;;;;;;5035781;28;20272;-79
2023/04/26 07:36:10;;;;;;;5.27;4.03;;;9.10;99.90;;;;;;5036505;28;20232;-79
2023/04/26 07:38:36;;;;;;;5.57;4.00;;;9.10;99.90;;;;;;5048581;28;20166;-76
2023/04/26 07:41:03;;;;;;;6.10;3.77;;;9.30;99.90;;;;;;5036173;28;20166;-77
2023/04/26 07:43:32;;;;;;;4.40;3.33;;;9.40;99.90;;;;;;5016906;28;20199;-79
2023/04/26 07:46:01;;;;;;;8.20;4.10;;;9.40;99.90;;;;;;5030293;28;20227;-80
2023/04/26 07:48:27;;;;;;;6.27;4.17;;;9.40;99.90;;;;;;5056670;28;20166;-79
2023/04/26 07:50:55;;;;;;;6.22;3.63;;;9.40;99.90;;;;;;5044426;28;20248;-79
2023/04/26 07:53:23;;;;;;;5.60;3.93;;;9.50;99.90;;;;;;5036773;28;20208;-79
2023/04/26 07:55:51;;;;;;;5.95;4.05;;;9.60;99.90;;;;;;5025944;28;20207;-78
2023/04/26 07:58:18;;;;;;;8.15;4.38;;;9.70;99.90;;;;;;5031554;28;20201;-78
2023/04/26 08:00:43;;;;;;;7.00;4.00;;;9.70;99.90;;;;;;5032716;28;20182;-79
2023/04/26 08:03:21;;;;;;;7.68;4.50;;;9.80;99.90;;;;;;5032947;28;20210;-75
2023/04/26 08:05:50;;;;;;;7.10;4.32;;;9.80;99.90;;;;;;5036337;28;20174;-79
2023/04/26 08:08:18;;;;;;;7.68;4.53;;;9.90;99.90;;;;;;5032844;28;20182;-78
2023/04/26 08:10:43;;;;;;;8.03;4.67;;;9.90;99.90;;;;;;5033260;28;20170;-78
2023/04/26 08:13:11;;;;;;;9.98;4.40;;;10.00;99.90;;;;;;5036456;28;20185;-79
2023/04/26 08:15:42;;;;;;;6.47;4.50;;;9.90;99.90;;;;;;5035755;28;20178;-80
2023/04/26 08:18:07;;;;;;;8.65;4.65;;;9.90;99.90;;;;;;5035109;28;20482;-79
2023/04/26 08:20:35;;;;;;;9.35;4.57;;;9.90;99.90;;;;;;5035875;28;20261;-80
2023/04/26 08:23:03;;;;;;;7.88;4.47;;;9.90;99.90;;;;;;5035543;28;20205;-78
2023/04/26 08:25:33;;;;;;;6.47;4.47;;;9.90;99.90;;;;;;5031342;28;20193;-79
2023/04/26 08:28:00;;;;;;;7.65;4.38;;;10.00;99.90;;;;;;5026398;28;20170;-79
2023/04/26 08:30:26;;;;;;;9.25;4.78;;;10.00;99.90;;;;;;5035566;28;20276;-79
2023/04/26 08:32:55;;;;;;;7.00;4.68;;;10.10;99.90;;;;;;5035483;28;20165;-78
2023/04/26 08:35:22;;;;;;;7.18;4.45;;;10.20;99.90;;;;;;5035384;28;20165;-77
2023/04/26 08:37:50;;;;;;;8.18;4.80;;;10.20;99.90;;;;;;5034298;28;20237;-78
2023/04/26 08:40:22;;;;;;;8.75;5.55;;;10.20;99.90;;;;;;5030516;28;20174;-73
2023/04/26 08:42:48;;;;;;;8.85;5.05;;;10.20;99.90;;;;;;5032061;28;20201;-74
2023/04/26 08:45:15;;;;;;;8.23;4.80;;;10.20;99.90;;;;;;5027022;28;20280;-79
2023/04/26 08:47:47;;;;;;;7.63;4.50;;;10.20;99.90;;;;;;5026981;28;20243;-77
2023/04/26 08:50:15;;;;;;;7.18;4.30;;;10.30;99.90;;;;;;5034827;28;20285;-78
2023/04/26 08:52:42;;;;;;;7.13;4.10;;;10.30;99.90;;;;;;5034744;28;20186;-79
2023/04/26 08:55:08;;;;;;;6.93;4.30;;;10.40;99.90;;;;;;5021919;28;20179;-78
2023/04/26 08:57:39;;;;;;;5.85;3.30;;;10.50;99.90;;;;;;5032656;28;20202;-75
2023/04/26 09:00:12;;;;;;;5.82;3.22;;;10.60;99.90;;;;;;5035075;28;20177;-76
2023/04/26 09:02:46;;;;;;;6.05;2.83;;;10.70;99.90;;;;;;5016659;28;20226;-76
2023/04/26 09:05:11;;;;;;;5.72;2.85;;;10.70;99.90;;;;;;5034787;28;20201;-78
2023/04/26 09:07:47;;;;;;;6.65;3.30;;;10.80;99.90;;;;;;5031204;28;20262;-78
2023/04/26 09:10:18;;;;;;;4.68;2.90;;;10.80;99.90;;;;;;5022876;28;20174;-76
2023/04/26 09:12:43;;;;;;;6.28;3.58;;;10.90;99.90;;;;;;5028353;28;20266;-78
2023/04/26 09:15:10;;;;;;;4.35;2.80;;;11.00;99.90;;;;;;5026598;28;20191;-78
2023/04/26 09:17:41;;;;;;;5.72;3.20;;;11.10;99.90;;;;;;5029528;28;20185;-71
2023/04/26 09:20:25;;;;;;;5.50;2.78;;;11.20;99.90;;;;;;5031708;28;20493;-77
2023/04/26 09:22:53;;;;;;;4.00;2.80;;;11.30;99.90;;;;;;5015733;28;20294;-78
2023/04/26 09:25:28;;;;;;;4.25;2.78;;;11.30;99.90;;;;;;5031676;28;20178;-77
2023/04/26 09:27:54;;;;;;;4.50;2.80;;;11.40;99.90;;;;;;5035563;28;20176;-78
2023/04/26 09:30:21;;;;;;;5.22;2.70;;;11.40;99.90;;;;;;5034237;28;20170;-78
2023/04/26 09:32:55;;;;;;;5.07;3.10;;;11.50;99.90;;;;;;5033886;28;20216;-78
2023/04/26 09:35:37;;;;;;;3.97;2.75;;;11.50;99.90;;;;;;5031140;28;20272;-77
2023/04/26 09:38:04;;;;;;;5.07;2.90;;;11.50;99.90;;;;;;5031483;28;20206;-77
2023/04/26 09:40:35;;;;;;;4.40;2.75;;;11.50;99.90;;;;;;5029923;28;20230;-79
2023/04/26 09:43:10;;;;;;;5.35;2.72;;;11.60;99.90;;;;;;5032039;28;20204;-78
2023/04/26 09:45:59;;;;;;;2.67;2.03;;;11.70;99.90;;;;;;5040338;28;20176;-78
2023/04/26 09:48:33;;;;;;;3.80;2.15;;;11.70;99.90;;;;;;5055012;28;20200;-78
2023/04/26 09:51:12;;;;;;;3.63;1.90;;;11.70;99.90;;;;;;5030433;28;20194;-77
2023/04/26 09:53:45;;;;;;;4.07;2.03;;;11.70;99.90;;;;;;5027555;28;20205;-77
2023/04/26 09:56:17;;;;;;;3.97;2.00;;;11.80;99.90;;;;;;5035765;28;20285;-78
2023/04/26 09:58:49;;;;;;;3.65;2.00;;;11.80;99.90;;;;;;5033072;28;20193;-77
2023/04/26 10:01:19;;;;;;;4.35;2.20;;;11.90;99.90;;;;;;5031796;28;20199;-78
2023/04/26 10:03:45;;;;;;;3.83;2.53;;;12.00;99.90;;;;;;5022459;28;20202;-79
2023/04/26 10:06:15;;;;;;;4.95;2.70;;;12.00;99.90;;;;;;5034504;28;20177;-79
2023/04/26 10:08:43;;;;;;;3.30;2.20;;;12.00;99.90;;;;;;5034117;28;20202;-77
2023/04/26 10:11:11;;;;;;;3.75;1.92;;;12.10;99.90;;;;;;5034221;28;20174;-78
2023/04/26 10:13:38;;;;;;;3.95;2.10;;;12.10;99.90;;;;;;5034127;28;20269;-79
2023/04/26 10:16:06;;;;;;;6.15;1.88;;;12.20;99.90;;;;;;5034295;28;20186;-79
2023/04/26 10:18:33;;;;;;;2.33;1.60;;;12.30;99.90;;;;;;5034126;28;20185;-77
2023/04/26 10:21:09;;;;;;;2.75;1.67;;;12.40;99.90;;;;;;5033857;28;20309;-79
2023/04/26 10:23:35;;;;;;;3.00;1.52;;;12.60;99.90;;;;;;5034012;28;20270;-77
2023/04/26 10:26:01;;;;;;;2.42;1.65;;;12.90;99.90;;;;;;5031786;28;20193;-78
2023/04/26 10:28:47;;;;;;;2.97;1.60;;;13.10;99.90;;;;;;5015250;28;20194;-77
2023/04/26 10:31:13;;;;;;;2.75;1.50;;;13.40;99.90;;;;;;5013965;28;20195;-76
2023/04/26 10:33:39;;;;;;;3.38;1.70;;;13.40;99.90;;;;;;5027909;28;20210;-76
2023/04/26 10:36:09;;;;;;;2.10;1.40;;;13.40;99.90;;;;;;5025129;28;20186;-78
2023/04/26 10:38:36;;;;;;;2.45;1.40;;;13.30;99.90;;;;;;5038016;28;20178;-76
2023/04/26 10:41:32;;;;;;;2.22;1.40;;;13.10;99.90;;;;;;5033511;28;20197;-78
2023/04/26 10:44:00;;;;;;;2.55;1.55;;;13.30;99.90;;;;;;5035512;28;20189;-79
2023/04/26 10:46:35;;;;;;;3.00;1.60;;;13.60;99.90;;;;;;5027521;28;20910;-77
2023/04/26 10:49:15;;;;;;;3.33;1.50;;;13.80;99.90;;;;;;5029962;28;20217;-77
2023/04/26 10:52:10;;;;;;;4.00;1.70;;;13.90;99.90;;;;;;5028954;28;20215;-78
2023/04/26 10:54:57;;;;;;;3.70;1.77;;;14.00;99.90;;;;;;5032888;28;20270;-79
2023/04/26 10:57:46;;;;;;;2.00;1.63;;;14.10;99.90;;;;;;5020119;28;20261;-78
2023/04/26 11:00:16;;;;;;;5.20;2.78;;;14.10;99.90;;;;;;5030097;28;20205;-78
2023/04/26 11:02:58;;;;;;;3.20;2.10;;;14.20;99.90;;;;;;5032691;28;20276;-76
2023/04/26 11:05:37;;;;;;;3.08;1.85;;;14.30;99.90;;;;;;5036251;28;20166;-77
2023/04/26 11:08:20;;;;;;;3.03;1.48;;;14.30;99.90;;;;;;5036457;28;20162;-78
2023/04/26 11:10:51;;;;;;;1.80;1.40;;;14.30;99.90;;;;;;5033255;28;20198;-76
2023/04/26 11:13:18;;;;;;;4.15;1.50;;;14.20;99.90;;;;;;5032635;28;20224;-77
2023/04/26 11:15:45;;;;;;;3.45;1.50;;;14.20;99.90;;;;;;5033444;28;20181;-77
2023/04/26 11:18:10;;;;;;;3.80;1.80;;;14.10;99.90;;;;;;5035947;28;20181;-78
2023/04/26 11:20:38;;;;;;;4.82;1.85;;;14.20;99.90;;;;;;5035658;28;20170;-77
2023/04/26 11:23:11;;;;;;;2.67;1.70;;;14.30;99.90;;;;;;5035701;28;20210;-77
2023/04/26 11:25:39;;;;;;;4.13;1.70;;;14.30;99.90;;;;;;5028412;28;20186;-77
2023/04/26 11:28:05;;;;;;;3.15;1.80;;;14.40;99.90;;;;;;5032801;28;20167;-76
2023/04/26 11:30:36;;;;;;;2.35;1.45;;;14.50;99.90;;;;;;5033318;28;20209;-73
2023/04/26 11:33:03;;;;;;;3.38;1.55;;;14.60;99.90;;;;;;5022954;28;20179;-79
2023/04/26 11:35:35;;;;;;;3.90;1.83;;;14.80;99.90;;;;;;5027231;28;20797;-76
2023/04/26 11:38:04;;;;;;;5.85;1.63;;;14.90;99.90;;;;;;5035726;28;20197;-75
2023/04/26 11:40:31;;;;;;;2.88;1.80;;;14.90;99.90;;;;;;5036416;28;20178;-73
2023/04/26 11:43:01;;;;;;;3.97;1.80;;;14.90;99.90;;;;;;5035831;28;20285;-78
2023/04/26 11:45:27;;;;;;;3.03;1.50;;;14.90;99.90;;;;;;5050645;28;20173;-77
2023/04/26 11:47:53;;;;;;;2.17;1.42;;;14.90;99.90;;;;;;5040666;28;20200;-74
2023/04/26 11:50:21;;;;;;;1.77;1.42;;;14.90;99.90;;;;;;5035668;28;20206;-78
2023/04/26 11:52:47;;;;;;;3.40;1.65;;;14.90;99.90;;;;;;5036084;28;20216;-77
2023/04/26 11:55:13;;;;;;;3.35;1.70;;;14.90;99.90;;;;;;5030951;28;20203;-76
2023/04/26 11:57:41;;;;;;;3.42;1.75;;;14.90;99.90;;;;;;5029017;28;20202;-79
2023/04/26 12:00:13;;;;;;;2.55;1.48;;;15.00;99.90;;;;;;5032640;28;20183;-77
2023/04/26 12:02:40;;;;;;;2.63;1.42;;;15.10;99.90;;;;;;5032289;28;20191;-77
2023/04/26 12:05:07;;;;;;;2.55;1.58;;;15.30;99.90;;;;;;5029474;28;20194;-77
2023/04/26 12:07:37;;;;;;;3.67;1.70;;;15.50;99.90;;;;;;5035826;28;20228;-76
2023/04/26 12:10:21;;;;;;;5.22;1.75;;;15.70;99.90;;;;;;5032137;28;20261;-77
2023/04/26 12:12:57;;;;;;;2.67;1.80;;;15.90;99.90;;;;;;5017154;28;20179;-79
2023/04/26 12:15:35;;;;;;;2.28;1.63;;;16.10;99.90;;;;;;5017734;28;20180;-74
2023/04/26 12:18:12;;;;;;;3.53;1.70;;;16.20;99.90;;;;;;5022894;28;20170;-70
2023/04/26 12:20:42;;;;;;;3.63;1.55;;;16.40;99.90;;;;;;5043793;28;20174;-76
2023/04/26 12:23:10;;;;;;;3.45;1.70;;;16.50;99.90;;;;;;5031788;28;20198;-78
2023/04/26 12:25:40;;;;;;;4.72;2.03;;;16.60;99.90;;;;;;5030000;28;20195;-78
2023/04/26 12:28:13;;;;;;;3.35;2.08;;;16.70;99.90;;;;;;5045686;28;20174;-77
2023/04/26 12:30:41;;;;;;;4.65;2.42;;;16.70;99.90;;;;;;5035608;28;20174;-79
2023/04/26 12:33:07;;;;;;;3.80;1.98;;;16.80;99.90;;;;;;5034975;28;20194;-77
2023/04/26 12:35:35;;;;;;;3.33;2.10;;;16.90;99.90;;;;;;5034319;28;20269;-73
2023/04/26 12:38:00;;;;;;;2.28;1.90;;;17.00;99.90;;;;;;5035552;28;20257;-79
2023/04/26 12:40:29;;;;;;;3.05;2.10;;;17.10;99.90;;;;;;5032200;28;20225;-72
2023/04/26 12:42:56;;;;;;;3.83;2.10;;;17.00;99.90;;;;;;5034726;28;20198;-74
2023/04/26 12:45:27;;;;;;;2.78;1.85;;;17.00;99.90;;;;;;5033787;28;20174;-78
2023/04/26 12:47:53;;;;;;;2.92;1.92;;;17.00;99.90;;;;;;5030714;28;20229;-79
2023/04/26 12:50:22;;;;;;;4.70;2.30;;;17.00;99.90;;;;;;5019074;28;20214;-78
2023/04/26 12:52:50;;;;;;;5.78;2.10;;;17.10;99.90;;;;;;5023605;28;20206;-79
2023/04/26 12:55:16;;;;;;;4.97;2.15;;;17.10;99.90;;;;;;5025378;28;20241;-77
2023/04/26 12:57:45;;;;;;;3.53;2.20;;;17.20;99.90;;;;;;5031844;28;20212;-79
2023/04/26 13:00:16;;;;;;;3.95;2.15;;;17.10;99.90;;;;;;5031653;28;20232;-79